PWSweather.com
Personal Weather Stations
Station Observations
KJ4AJP
Beautiful Downtown Gardner, Martin, TN 38237

Beautiful Downtown GardnerMartin, TN 38237

Lat: 36.358, Lon: -88.8994

Elevation: 384.3

Station Type: TP1080WC

http://weather.mambm.com/

High Low Average
Temperature 69.1°F20.6°C 55.2°F12.9°C 62.3°F16.8°C
Dew Point 68.8°F20.4°C 55.0°F12.8°C 62.0°F16.7°C
Winds 17.4 mph 28.0 kmh Calm Calm 4.0 mph SSE6.4 kmh SSE
Wind Gusts 47.2 mph76.0 kmh 2.2 mph3.5 kmh 11.0 mph17.7 kmh
Humidity 99% 99% 99%
Pressure 30.11 in1019.6 mb 29.67 in1004.7 mb -
Precipitation 1.33 in33.8 mm - -
Hour Temp Dew Point Humidity Winds Wind Gusts Pressure Precip Precip Rate Daily Precip Total
12:00 AM 55.2°F12.9°C 55.0°F12.8°C 99% 0.7 mph E1.1 kmh E 2.2 mph3.5 kmh 30.11 in1019.6 mb 0.00 in0.0 mm 0.00 in0.0 mm 0.00 in0.0 mm
12:15 AM 55.4°F13.0°C 55.1°F12.8°C 99% 0.7 mph ENE1.1 kmh ENE 3.1 mph5.0 kmh 30.10 in1019.3 mb 0.00 in0.0 mm 0.00 in0.0 mm 0.00 in0.0 mm
12:30 AM 55.4°F13.0°C 55.1°F12.8°C 99% Calm Calm 3.8 mph6.1 kmh 30.10 in1019.3 mb 0.01 in0.3 mm 0.04 in1.0 mm 0.01 in0.3 mm
12:45 AM 55.6°F13.1°C 55.3°F12.9°C 99% Calm Calm 3.1 mph5.0 kmh 30.09 in1019.0 mb 0.02 in0.5 mm 0.04 in1.0 mm 0.02 in0.5 mm
01:00 AM 55.8°F13.2°C 55.5°F13.1°C 99% 0.7 mph NNE1.1 kmh NNE 3.1 mph5.0 kmh 30.08 in1018.6 mb 0.02 in0.5 mm 0.00 in0.0 mm 0.02 in0.5 mm
01:15 AM 55.9°F13.3°C 55.7°F13.2°C 99% 2.2 mph NE3.5 kmh NE 5.4 mph8.7 kmh 30.07 in1018.3 mb 0.02 in0.5 mm 0.00 in0.0 mm 0.02 in0.5 mm
01:30 AM 55.9°F13.3°C 55.7°F13.2°C 99% 2.2 mph ENE3.5 kmh ENE 3.8 mph6.1 kmh 30.06 in1017.9 mb 0.01 in0.3 mm 0.00 in0.0 mm 0.02 in0.5 mm
01:45 AM 56.1°F13.4°C 55.9°F13.3°C 99% Calm Calm 3.1 mph5.0 kmh 30.05 in1017.6 mb 0.00 in0.0 mm 0.00 in0.0 mm 0.02 in0.5 mm
02:00 AM 55.9°F13.3°C 55.7°F13.2°C 99% 0.7 mph N1.1 kmh N 2.2 mph3.5 kmh 30.05 in1017.6 mb 0.00 in0.0 mm 0.00 in0.0 mm 0.02 in0.5 mm
02:15 AM 56.1°F13.4°C 55.9°F13.3°C 99% Calm Calm 2.2 mph3.5 kmh 30.04 in1017.3 mb 0.00 in0.0 mm 0.00 in0.0 mm 0.02 in0.5 mm
02:30 AM 55.9°F13.3°C 55.7°F13.2°C 99% 1.6 mph NNE2.6 kmh NNE 2.2 mph3.5 kmh 30.03 in1016.9 mb 0.00 in0.0 mm 0.00 in0.0 mm 0.02 in0.5 mm
02:45 AM 55.9°F13.3°C 55.7°F13.2°C 99% Calm Calm 4.5 mph7.2 kmh 30.02 in1016.6 mb 0.00 in0.0 mm 0.00 in0.0 mm 0.02 in0.5 mm
03:00 AM 55.9°F13.3°C 55.7°F13.2°C 99% 1.6 mph NE2.6 kmh NE 4.5 mph7.2 kmh 30.01 in1016.3 mb 0.01 in0.3 mm 0.01 in0.3 mm 0.04 in1.0 mm
03:15 AM 56.1°F13.4°C 55.9°F13.3°C 99% 0.7 mph ENE1.1 kmh ENE 3.8 mph6.1 kmh 30.00 in1015.9 mb 0.01 in0.3 mm 0.00 in0.0 mm 0.04 in1.0 mm
03:30 AM 56.1°F13.4°C 55.9°F13.3°C 99% 0.7 mph NE1.1 kmh NE 4.5 mph7.2 kmh 30.00 in1015.9 mb 0.01 in0.3 mm 0.00 in0.0 mm 0.04 in1.0 mm
03:45 AM 56.3°F13.5°C 56.0°F13.3°C 99% 3.1 mph ENE5.0 kmh ENE 5.4 mph8.7 kmh 29.99 in1015.6 mb 0.01 in0.3 mm 0.00 in0.0 mm 0.04 in1.0 mm
04:00 AM 56.5°F13.6°C 56.2°F13.4°C 99% 2.2 mph E3.5 kmh E 5.4 mph8.7 kmh 29.98 in1015.2 mb 0.00 in0.0 mm 0.00 in0.0 mm 0.04 in1.0 mm
04:15 AM 56.5°F13.6°C 56.2°F13.4°C 99% 2.2 mph E3.5 kmh E 4.5 mph7.2 kmh 29.98 in1015.2 mb 0.00 in0.0 mm 0.00 in0.0 mm 0.04 in1.0 mm
04:30 AM 56.7°F13.7°C 56.4°F13.6°C 99% 0.7 mph E1.1 kmh E 4.5 mph7.2 kmh 29.98 in1015.2 mb 0.00 in0.0 mm 0.00 in0.0 mm 0.04 in1.0 mm
04:45 AM 57.0°F13.9°C 56.8°F13.8°C 99% 1.6 mph E2.6 kmh E 3.8 mph6.1 kmh 29.98 in1015.2 mb 0.00 in0.0 mm 0.00 in0.0 mm 0.04 in1.0 mm
05:00 AM 57.2°F14.0°C 56.9°F13.8°C 99% 1.6 mph ESE2.6 kmh ESE 3.8 mph6.1 kmh 29.98 in1015.2 mb 0.00 in0.0 mm 0.00 in0.0 mm 0.04 in1.0 mm
05:15 AM 57.6°F14.2°C 57.3°F14.1°C 99% 1.6 mph ESE2.6 kmh ESE 5.4 mph8.7 kmh 29.98 in1015.2 mb 0.00 in0.0 mm 0.00 in0.0 mm 0.04 in1.0 mm
05:30 AM 57.9°F14.4°C 57.7°F14.3°C 99% 1.6 mph ESE2.6 kmh ESE 5.4 mph8.7 kmh 29.98 in1015.2 mb 0.00 in0.0 mm 0.00 in0.0 mm 0.04 in1.0 mm
05:45 AM 58.6°F14.8°C 58.4°F14.7°C 99% 1.6 mph SE2.6 kmh SE 6.9 mph11.1 kmh 29.98 in1015.2 mb 0.00 in0.0 mm 0.00 in0.0 mm 0.04 in1.0 mm
06:00 AM 59.0°F15.0°C 58.7°F14.8°C 99% 0.7 mph SE1.1 kmh SE 8.3 mph13.4 kmh 29.97 in1014.9 mb 0.00 in0.0 mm 0.00 in0.0 mm 0.04 in1.0 mm
06:15 AM 59.2°F15.1°C 58.9°F14.9°C 99% 3.1 mph SSE5.0 kmh SSE 6.9 mph11.1 kmh 29.96 in1014.6 mb 0.01 in0.3 mm 0.04 in1.0 mm 0.05 in1.3 mm
06:30 AM 59.5°F15.3°C 59.3°F15.2°C 99% 3.8 mph S6.1 kmh S 7.6 mph12.2 kmh 29.96 in1014.6 mb 0.01 in0.3 mm 0.00 in0.0 mm 0.05 in1.3 mm
06:45 AM 60.4°F15.8°C 60.2°F15.7°C 99% 3.1 mph S5.0 kmh S 9.2 mph14.8 kmh 29.96 in1014.6 mb 0.01 in0.3 mm 0.00 in0.0 mm 0.05 in1.3 mm
07:00 AM 61.2°F16.2°C 60.9°F16.1°C 99% 3.8 mph S6.1 kmh S 7.6 mph12.2 kmh 29.97 in1014.9 mb 0.01 in0.3 mm 0.00 in0.0 mm 0.05 in1.3 mm
07:15 AM 61.5°F16.4°C 61.3°F16.3°C 99% 3.8 mph S6.1 kmh S 5.4 mph8.7 kmh 29.97 in1014.9 mb 0.00 in0.0 mm 0.00 in0.0 mm 0.05 in1.3 mm
07:30 AM 62.1°F16.7°C 61.8°F16.6°C 99% 3.1 mph S5.0 kmh S 8.3 mph13.4 kmh 29.98 in1015.2 mb 0.00 in0.0 mm 0.00 in0.0 mm 0.05 in1.3 mm
07:45 AM 63.0°F17.2°C 62.7°F17.1°C 99% 2.2 mph S3.5 kmh S 6.9 mph11.1 kmh 29.98 in1015.2 mb 0.00 in0.0 mm 0.00 in0.0 mm 0.05 in1.3 mm
08:00 AM 63.7°F17.6°C 63.4°F17.4°C 99% 1.6 mph SSW2.6 kmh SSW 8.3 mph13.4 kmh 29.98 in1015.2 mb 0.00 in0.0 mm 0.00 in0.0 mm 0.05 in1.3 mm
08:15 AM 64.2°F17.9°C 64.0°F17.8°C 99% 3.8 mph S6.1 kmh S 10.7 mph17.2 kmh 29.97 in1014.9 mb 0.00 in0.0 mm 0.00 in0.0 mm 0.05 in1.3 mm
08:30 AM 64.6°F18.1°C 64.3°F17.9°C 99% 3.1 mph S5.0 kmh S 12.1 mph19.5 kmh 29.96 in1014.6 mb 0.00 in0.0 mm 0.00 in0.0 mm 0.05 in1.3 mm
08:45 AM 64.9°F18.3°C 64.7°F18.2°C 99% 4.5 mph S7.2 kmh S 11.4 mph18.3 kmh 29.97 in1014.9 mb 0.00 in0.0 mm 0.00 in0.0 mm 0.05 in1.3 mm
09:00 AM 65.1°F18.4°C 64.9°F18.3°C 99% 6.9 mph SSW11.1 kmh SSW 14.5 mph23.3 kmh 29.95 in1014.2 mb 0.00 in0.0 mm 0.00 in0.0 mm 0.05 in1.3 mm
09:15 AM 65.7°F18.7°C 65.4°F18.6°C 99% 3.8 mph S6.1 kmh S 11.4 mph18.3 kmh 29.95 in1014.2 mb 0.00 in0.0 mm 0.00 in0.0 mm 0.05 in1.3 mm
09:30 AM 66.2°F19.0°C 65.9°F18.8°C 99% 3.8 mph S6.1 kmh S 13.6 mph21.9 kmh 29.95 in1014.2 mb 0.00 in0.0 mm 0.00 in0.0 mm 0.05 in1.3 mm
09:45 AM 66.7°F19.3°C 66.5°F19.2°C 99% 4.5 mph S7.2 kmh S 12.1 mph19.5 kmh 29.95 in1014.2 mb 0.00 in0.0 mm 0.00 in0.0 mm 0.05 in1.3 mm
10:00 AM 67.6°F19.8°C 67.4°F19.7°C 99% 6.0 mph SSW9.7 kmh SSW 11.4 mph18.3 kmh 29.93 in1013.5 mb 0.00 in0.0 mm 0.00 in0.0 mm 0.05 in1.3 mm
10:15 AM 68.4°F20.2°C 68.1°F20.1°C 99% 4.5 mph S7.2 kmh S 9.8 mph15.8 kmh 29.92 in1013.2 mb 0.00 in0.0 mm 0.00 in0.0 mm 0.05 in1.3 mm
10:30 AM 68.9°F20.5°C 68.6°F20.3°C 99% 6.9 mph S11.1 kmh S 15.2 mph24.5 kmh 29.92 in1013.2 mb 0.00 in0.0 mm 0.00 in0.0 mm 0.05 in1.3 mm
10:45 AM 69.1°F20.6°C 68.8°F20.4°C 99% 6.0 mph SSW9.7 kmh SSW 15.2 mph24.5 kmh 29.92 in1013.2 mb 0.00 in0.0 mm 0.00 in0.0 mm 0.05 in1.3 mm
11:00 AM 68.9°F20.5°C 68.6°F20.3°C 99% 4.5 mph S7.2 kmh S 14.5 mph23.3 kmh 29.91 in1012.9 mb 0.00 in0.0 mm 0.00 in0.0 mm 0.05 in1.3 mm
11:15 AM 68.7°F20.4°C 68.5°F20.3°C 99% 3.8 mph S6.1 kmh S 11.4 mph18.3 kmh 29.90 in1012.5 mb 0.00 in0.0 mm 0.00 in0.0 mm 0.05 in1.3 mm
11:30 AM 68.9°F20.5°C 68.6°F20.3°C 99% 3.8 mph S6.1 kmh S 11.4 mph18.3 kmh 29.88 in1011.9 mb 0.00 in0.0 mm 0.00 in0.0 mm 0.05 in1.3 mm
11:45 AM 68.7°F20.4°C 68.5°F20.3°C 99% 4.5 mph S7.2 kmh S 9.8 mph15.8 kmh 29.86 in1011.2 mb 0.00 in0.0 mm 0.00 in0.0 mm 0.05 in1.3 mm
12:00 PM 68.4°F20.2°C 68.1°F20.1°C 99% 3.8 mph S6.1 kmh S 12.1 mph19.5 kmh 29.86 in1011.2 mb 0.07 in1.8 mm 0.09 in2.3 mm 0.12 in3.0 mm
12:15 PM 67.6°F19.8°C 67.4°F19.7°C 99% 0.7 mph S1.1 kmh S 7.6 mph12.2 kmh 29.85 in1010.8 mb 0.15 in3.8 mm 0.32 in8.1 mm 0.20 in5.1 mm
12:30 PM 67.3°F19.6°C 67.0°F19.4°C 99% 3.1 mph S5.0 kmh S 6.0 mph9.7 kmh 29.84 in1010.5 mb 0.15 in3.8 mm 0.00 in0.0 mm 0.20 in5.1 mm
12:45 PM 66.0°F18.9°C 65.8°F18.8°C 99% 4.5 mph WSW7.2 kmh WSW 20.6 mph33.2 kmh 29.87 in1011.5 mb 0.15 in3.8 mm 0.00 in0.0 mm 0.20 in5.1 mm
01:00 PM 64.4°F18.0°C 64.1°F17.8°C 99% 1.6 mph SW2.6 kmh SW 8.3 mph13.4 kmh 29.86 in1011.2 mb 0.11 in2.8 mm 0.00 in0.0 mm 0.22 in5.6 mm
01:15 PM 63.7°F17.6°C 63.4°F17.4°C 99% Calm Calm 3.1 mph5.0 kmh 29.84 in1010.5 mb 0.06 in1.5 mm 0.00 in0.0 mm 0.26 in6.6 mm
01:30 PM 63.3°F17.4°C 63.1°F17.3°C 99% 0.7 mph N1.1 kmh N 2.2 mph3.5 kmh 29.82 in1009.8 mb 0.08 in2.0 mm 0.08 in2.0 mm 0.28 in7.1 mm
01:45 PM 63.0°F17.2°C 62.7°F17.1°C 99% 3.1 mph ESE5.0 kmh ESE 3.8 mph6.1 kmh 29.82 in1009.8 mb 0.11 in2.8 mm 0.12 in3.0 mm 0.31 in7.9 mm
02:00 PM 63.0°F17.2°C 62.7°F17.1°C 99% 2.2 mph ESE3.5 kmh ESE 6.0 mph9.7 kmh 29.79 in1008.8 mb 0.18 in4.6 mm 0.09 in2.3 mm 0.40 in10.2 mm
02:15 PM 64.4°F18.0°C 64.1°F17.8°C 99% 5.4 mph S8.7 kmh S 10.7 mph17.2 kmh 29.80 in1009.1 mb 0.20 in5.1 mm 0.08 in2.0 mm 0.47 in11.9 mm
02:30 PM 64.9°F18.3°C 64.7°F18.2°C 99% 2.2 mph SW3.5 kmh SW 7.6 mph12.2 kmh 29.79 in1008.8 mb 0.21 in5.3 mm 0.04 in1.0 mm 0.50 in12.7 mm
02:45 PM 65.1°F18.4°C 64.9°F18.3°C 99% 2.2 mph SE3.5 kmh SE 7.6 mph12.2 kmh 29.79 in1008.8 mb 0.20 in5.1 mm 0.00 in0.0 mm 0.51 in13.0 mm
03:00 PM 65.7°F18.7°C 65.4°F18.6°C 99% 6.0 mph SSE9.7 kmh SSE 8.3 mph13.4 kmh 29.77 in1008.1 mb 0.09 in2.3 mm 0.00 in0.0 mm 0.51 in13.0 mm
03:15 PM 65.8°F18.8°C 65.6°F18.7°C 99% 4.5 mph SE7.2 kmh SE 9.8 mph15.8 kmh 29.77 in1008.1 mb 0.04 in1.0 mm 0.00 in0.0 mm 0.51 in13.0 mm
03:30 PM 65.7°F18.7°C 65.4°F18.6°C 99% 5.4 mph SE8.7 kmh SE 8.3 mph13.4 kmh 29.75 in1007.5 mb 0.01 in0.3 mm 0.00 in0.0 mm 0.51 in13.0 mm
03:45 PM 65.8°F18.8°C 65.6°F18.7°C 99% 4.5 mph SE7.2 kmh SE 13.6 mph21.9 kmh 29.74 in1007.1 mb 0.00 in0.0 mm 0.00 in0.0 mm 0.51 in13.0 mm
04:00 PM 66.0°F18.9°C 65.8°F18.8°C 99% 5.4 mph SE8.7 kmh SE 16.8 mph27.0 kmh 29.73 in1006.8 mb 0.00 in0.0 mm 0.00 in0.0 mm 0.51 in13.0 mm
04:15 PM 66.2°F19.0°C 65.9°F18.8°C 99% 5.4 mph SE8.7 kmh SE 15.9 mph25.6 kmh 29.73 in1006.8 mb 0.00 in0.0 mm 0.00 in0.0 mm 0.51 in13.0 mm
04:30 PM 66.4°F19.1°C 66.1°F18.9°C 99% 5.4 mph SE8.7 kmh SE 10.7 mph17.2 kmh 29.73 in1006.8 mb 0.00 in0.0 mm 0.00 in0.0 mm 0.51 in13.0 mm
04:45 PM 66.4°F19.1°C 66.1°F18.9°C 99% 6.9 mph SE11.1 kmh SE 11.4 mph18.3 kmh 29.72 in1006.4 mb 0.01 in0.3 mm 0.04 in1.0 mm 0.52 in13.2 mm
05:00 PM 66.4°F19.1°C 66.1°F18.9°C 99% 5.4 mph SSE8.7 kmh SSE 11.4 mph18.3 kmh 29.71 in1006.1 mb 0.01 in0.3 mm 0.00 in0.0 mm 0.52 in13.2 mm
05:15 PM 66.9°F19.4°C 66.7°F19.3°C 99% 6.0 mph S9.7 kmh S 11.4 mph18.3 kmh 29.71 in1006.1 mb 0.02 in0.5 mm 0.04 in1.0 mm 0.53 in13.5 mm
05:30 PM 67.1°F19.5°C 66.8°F19.3°C 99% 5.4 mph S8.7 kmh S 11.4 mph18.3 kmh 29.70 in1005.8 mb 0.02 in0.5 mm 0.00 in0.0 mm 0.53 in13.5 mm
05:45 PM 67.6°F19.8°C 67.4°F19.7°C 99% 4.5 mph S7.2 kmh S 10.7 mph17.2 kmh 29.69 in1005.4 mb 0.01 in0.3 mm 0.00 in0.0 mm 0.53 in13.5 mm
06:00 PM 68.0°F20.0°C 67.7°F19.8°C 99% 8.3 mph S13.4 kmh S 13.6 mph21.9 kmh 29.70 in1005.8 mb 0.01 in0.3 mm 0.00 in0.0 mm 0.53 in13.5 mm
06:15 PM 68.4°F20.2°C 68.1°F20.1°C 99% 5.4 mph S8.7 kmh S 11.4 mph18.3 kmh 29.70 in1005.8 mb 0.01 in0.3 mm 0.00 in0.0 mm 0.54 in13.7 mm
06:30 PM 68.5°F20.3°C 68.3°F20.2°C 99% 6.0 mph SSE9.7 kmh SSE 20.6 mph33.2 kmh 29.67 in1004.7 mb 0.01 in0.3 mm 0.00 in0.0 mm 0.54 in13.7 mm
06:45 PM 68.7°F20.4°C 68.5°F20.3°C 99% 4.5 mph SSE7.2 kmh SSE 17.4 mph28.0 kmh 29.68 in1005.1 mb 0.01 in0.3 mm 0.00 in0.0 mm 0.54 in13.7 mm
07:00 PM 68.9°F20.5°C 68.6°F20.3°C 99% 6.9 mph SSE11.1 kmh SSE 18.3 mph29.5 kmh 29.67 in1004.7 mb 0.02 in0.5 mm 0.01 in0.3 mm 0.56 in14.2 mm
07:15 PM 68.7°F20.4°C 68.5°F20.3°C 99% 17.4 mph SSE28.0 kmh SSE 28.2 mph45.4 kmh 29.76 in1007.8 mb 0.06 in1.5 mm 0.16 in4.1 mm 0.60 in15.2 mm
07:30 PM 63.1°F17.3°C 62.9°F17.2°C 99% 9.8 mph WSW15.8 kmh WSW 47.2 mph76.0 kmh 29.73 in1006.8 mb 0.58 in14.7 mm 2.08 in52.8 mm 1.12 in28.4 mm
07:45 PM 61.9°F16.6°C 61.6°F16.4°C 99% 7.6 mph SW12.2 kmh SW 18.3 mph29.5 kmh 29.73 in1006.8 mb 0.61 in15.5 mm 0.12 in3.0 mm 1.16 in29.5 mm
08:00 PM 61.9°F16.6°C 61.6°F16.4°C 99% 9.2 mph SW14.8 kmh SW 14.5 mph23.3 kmh 29.73 in1006.8 mb 0.61 in15.5 mm 0.00 in0.0 mm 1.17 in29.7 mm
08:15 PM 63.0°F17.2°C 62.7°F17.1°C 99% 6.0 mph SW9.7 kmh SW 22.1 mph35.6 kmh 29.73 in1006.8 mb 0.57 in14.5 mm 0.00 in0.0 mm 1.20 in30.5 mm
08:30 PM 63.0°F17.2°C 62.7°F17.1°C 99% 10.7 mph SW17.2 kmh SW 22.1 mph35.6 kmh 29.77 in1008.1 mb 0.12 in3.0 mm 0.00 in0.0 mm 1.24 in31.5 mm
08:45 PM 62.2°F16.8°C 62.0°F16.7°C 99% 9.2 mph SW14.8 kmh SW 22.8 mph36.7 kmh 29.76 in1007.8 mb 0.11 in2.8 mm 0.00 in0.0 mm 1.26 in32.0 mm
09:00 PM 61.5°F16.4°C 61.3°F16.3°C 99% 6.9 mph SSW11.1 kmh SSW 18.3 mph29.5 kmh 29.76 in1007.8 mb 0.08 in2.0 mm 0.00 in0.0 mm 1.26 in32.0 mm
09:15 PM 61.2°F16.2°C 60.9°F16.1°C 99% 5.4 mph SW8.7 kmh SW 15.2 mph24.5 kmh 29.76 in1007.8 mb 0.07 in1.8 mm 0.00 in0.0 mm 1.28 in32.5 mm
09:30 PM 60.8°F16.0°C 60.5°F15.8°C 99% 5.4 mph SW8.7 kmh SW 21.3 mph34.3 kmh 29.78 in1008.5 mb 0.04 in1.0 mm 0.00 in0.0 mm 1.28 in32.5 mm
09:45 PM 60.3°F15.7°C 60.0°F15.6°C 99% 6.9 mph SSW11.1 kmh SSW 15.9 mph25.6 kmh 29.79 in1008.8 mb 0.02 in0.5 mm 0.00 in0.0 mm 1.29 in32.8 mm
10:00 PM 59.7°F15.4°C 59.5°F15.3°C 99% 6.9 mph SW11.1 kmh SW 19.0 mph30.6 kmh 29.78 in1008.5 mb 0.04 in1.0 mm 0.03 in0.8 mm 1.30 in33.0 mm
10:15 PM 59.2°F15.1°C 58.9°F14.9°C 99% 2.2 mph SSW3.5 kmh SSW 15.2 mph24.5 kmh 29.80 in1009.1 mb 0.02 in0.5 mm 0.00 in0.0 mm 1.30 in33.0 mm
10:30 PM 58.5°F14.7°C 58.2°F14.6°C 99% 6.9 mph SSW11.1 kmh SSW 13.0 mph20.9 kmh 29.80 in1009.1 mb 0.04 in1.0 mm 0.08 in2.0 mm 1.31 in33.3 mm
10:45 PM 58.1°F14.5°C 57.8°F14.3°C 99% 5.4 mph SSW8.7 kmh SSW 9.8 mph15.8 kmh 29.80 in1009.1 mb 0.04 in1.0 mm 0.00 in0.0 mm 1.32 in33.5 mm
11:00 PM 57.6°F14.2°C 57.3°F14.1°C 99% 9.8 mph SW15.8 kmh SW 15.9 mph25.6 kmh 29.79 in1008.8 mb 0.04 in1.0 mm 0.00 in0.0 mm 1.33 in33.8 mm
11:15 PM 57.6°F14.2°C 57.3°F14.1°C 99% 6.0 mph SW9.7 kmh SW 15.9 mph25.6 kmh 29.80 in1009.1 mb 0.04 in1.0 mm 0.00 in0.0 mm 1.33 in33.8 mm
11:30 PM 57.6°F14.2°C 57.3°F14.1°C 99% 7.6 mph SW12.2 kmh SW 14.5 mph23.3 kmh 29.81 in1009.5 mb 0.02 in0.5 mm 0.00 in0.0 mm 1.33 in33.8 mm
11:45 PM 57.9°F14.4°C 57.7°F14.3°C 99% 5.4 mph SW8.7 kmh SW 15.2 mph24.5 kmh 29.82 in1009.8 mb 0.01 in0.3 mm 0.00 in0.0 mm 1.33 in33.8 mm